sensor_id;sensor_type;location;lat;lon;timestamp;temperature;humidity
37478;DHT22;23334;54.316;10.182;2023-12-20T00:01:33;5.40;99.90
37478;DHT22;23334;54.316;10.182;2023-12-20T00:03:58;5.40;99.90
37478;DHT22;23334;54.316;10.182;2023-12-20T00:06:25;5.40;99.90
37478;DHT22;23334;54.316;10.182;2023-12-20T00:08:52;5.40;99.90
37478;DHT22;23334;54.316;10.182;2023-12-20T00:11:18;5.40;99.90
37478;DHT22;23334;54.316;10.182;2023-12-20T00:13:45;5.40;99.90
37478;DHT22;23334;54.316;10.182;2023-12-20T00:16:11;5.40;99.90
37478;DHT22;23334;54.316;10.182;2023-12-20T00:18:36;5.40;99.90
37478;DHT22;23334;54.316;10.182;2023-12-20T00:21:02;5.40;99.90
37478;DHT22;23334;54.316;10.182;2023-12-20T00:23:29;5.40;99.90
37478;DHT22;23334;54.316;10.182;2023-12-20T00:25:55;5.40;99.90
37478;DHT22;23334;54.316;10.182;2023-12-20T00:28:21;5.40;99.90
37478;DHT22;23334;54.316;10.182;2023-12-20T00:30:47;5.40;99.90
37478;DHT22;23334;54.316;10.182;2023-12-20T00:33:14;5.50;99.90
37478;DHT22;23334;54.316;10.182;2023-12-20T00:35:40;5.50;99.90
37478;DHT22;23334;54.316;10.182;2023-12-20T00:38:07;5.60;99.90
37478;DHT22;23334;54.316;10.182;2023-12-20T00:40:34;5.70;99.90
37478;DHT22;23334;54.316;10.182;2023-12-20T00:42:59;5.80;99.90
37478;DHT22;23334;54.316;10.182;2023-12-20T00:45:26;5.80;99.90
37478;DHT22;23334;54.316;10.182;2023-12-20T00:47:51;5.80;99.90
37478;DHT22;23334;54.316;10.182;2023-12-20T00:50:18;5.90;99.90
37478;DHT22;23334;54.316;10.182;2023-12-20T00:52:44;5.80;99.90
37478;DHT22;23334;54.316;10.182;2023-12-20T00:55:10;5.80;99.90
37478;DHT22;23334;54.316;10.182;2023-12-20T00:57:36;5.70;99.90
37478;DHT22;23334;54.316;10.182;2023-12-20T01:00:03;5.70;99.90
37478;DHT22;23334;54.316;10.182;2023-12-20T01:02:29;5.60;99.90
37478;DHT22;23334;54.316;10.182;2023-12-20T01:04:54;5.50;99.90
37478;DHT22;23334;54.316;10.182;2023-12-20T01:07:20;5.50;99.90
37478;DHT22;23334;54.316;10.182;2023-12-20T01:09:47;5.50;99.90
37478;DHT22;23334;54.316;10.182;2023-12-20T01:12:14;5.40;99.90
37478;DHT22;23334;54.316;10.182;2023-12-20T01:14:40;5.40;99.90
37478;DHT22;23334;54.316;10.182;2023-12-20T01:17:06;5.40;99.90
37478;DHT22;23334;54.316;10.182;2023-12-20T01:19:31;5.40;99.90
37478;DHT22;23334;54.316;10.182;2023-12-20T01:21:58;5.40;99.90
37478;DHT22;23334;54.316;10.182;2023-12-20T01:24:24;5.50;99.90
37478;DHT22;23334;54.316;10.182;2023-12-20T01:26:49;5.50;99.90
37478;DHT22;23334;54.316;10.182;2023-12-20T01:29:15;5.50;99.90
37478;DHT22;23334;54.316;10.182;2023-12-20T01:31:41;5.50;99.90
37478;DHT22;23334;54.316;10.182;2023-12-20T01:34:08;5.50;99.90
37478;DHT22;23334;54.316;10.182;2023-12-20T01:36:33;5.50;99.90
37478;DHT22;23334;54.316;10.182;2023-12-20T01:38:59;5.60;99.90
37478;DHT22;23334;54.316;10.182;2023-12-20T01:41:26;5.60;99.90
37478;DHT22;23334;54.316;10.182;2023-12-20T01:43:52;5.70;99.90
37478;DHT22;23334;54.316;10.182;2023-12-20T01:46:19;5.80;99.90
37478;DHT22;23334;54.316;10.182;2023-12-20T01:48:47;5.80;99.90
37478;DHT22;23334;54.316;10.182;2023-12-20T01:51:12;5.90;99.90
37478;DHT22;23334;54.316;10.182;2023-12-20T01:53:39;5.90;99.90
37478;DHT22;23334;54.316;10.182;2023-12-20T01:56:06;5.90;99.90
37478;DHT22;23334;54.316;10.182;2023-12-20T01:58:33;5.90;99.90
37478;DHT22;23334;54.316;10.182;2023-12-20T02:00:59;5.90;99.90
37478;DHT22;23334;54.316;10.182;2023-12-20T02:03:25;5.90;99.90
37478;DHT22;23334;54.316;10.182;2023-12-20T02:05:50;5.90;99.90
37478;DHT22;23334;54.316;10.182;2023-12-20T02:08:17;5.90;99.90
37478;DHT22;23334;54.316;10.182;2023-12-20T02:10:43;5.90;99.90
37478;DHT22;23334;54.316;10.182;2023-12-20T02:13:09;5.90;99.90
37478;DHT22;23334;54.316;10.182;2023-12-20T02:15:35;5.90;99.90
37478;DHT22;23334;54.316;10.182;2023-12-20T02:18:02;5.90;99.90
37478;DHT22;23334;54.316;10.182;2023-12-20T02:20:28;5.90;99.90
37478;DHT22;23334;54.316;10.182;2023-12-20T02:22:55;5.90;99.90
37478;DHT22;23334;54.316;10.182;2023-12-20T02:25:20;5.90;99.90
37478;DHT22;23334;54.316;10.182;2023-12-20T02:27:46;5.90;99.90
37478;DHT22;23334;54.316;10.182;2023-12-20T02:30:12;5.90;99.90
37478;DHT22;23334;54.316;10.182;2023-12-20T02:32:38;5.90;99.90
37478;DHT22;23334;54.316;10.182;2023-12-20T02:35:04;6.00;99.90
37478;DHT22;23334;54.316;10.182;2023-12-20T02:37:29;6.00;99.90
37478;DHT22;23334;54.316;10.182;2023-12-20T02:39:55;6.10;99.90
37478;DHT22;23334;54.316;10.182;2023-12-20T02:42:20;6.10;99.90
37478;DHT22;23334;54.316;10.182;2023-12-20T02:44:47;6.10;99.90
37478;DHT22;23334;54.316;10.182;2023-12-20T02:47:14;6.10;99.90
37478;DHT22;23334;54.316;10.182;2023-12-20T02:49:40;6.20;99.90
37478;DHT22;23334;54.316;10.182;2023-12-20T02:52:06;6.30;99.90
37478;DHT22;23334;54.316;10.182;2023-12-20T02:54:31;6.40;99.90
37478;DHT22;23334;54.316;10.182;2023-12-20T02:56:57;6.30;99.90
37478;DHT22;23334;54.316;10.182;2023-12-20T02:59:24;6.30;99.90
37478;DHT22;23334;54.316;10.182;2023-12-20T03:01:51;6.30;99.90
37478;DHT22;23334;54.316;10.182;2023-12-20T03:04:16;6.40;99.90
37478;DHT22;23334;54.316;10.182;2023-12-20T03:06:42;6.30;99.90
37478;DHT22;23334;54.316;10.182;2023-12-20T03:09:07;6.30;99.90
37478;DHT22;23334;54.316;10.182;2023-12-20T03:11:33;6.30;99.90
37478;DHT22;23334;54.316;10.182;2023-12-20T03:13:58;6.30;99.90
37478;DHT22;23334;54.316;10.182;2023-12-20T03:16:25;6.30;99.90
37478;DHT22;23334;54.316;10.182;2023-12-20T03:18:51;6.20;99.90
37478;DHT22;23334;54.316;10.182;2023-12-20T03:21:18;6.20;99.90
37478;DHT22;23334;54.316;10.182;2023-12-20T03:23:43;6.20;99.90
37478;DHT22;23334;54.316;10.182;2023-12-20T03:26:09;6.30;99.90
37478;DHT22;23334;54.316;10.182;2023-12-20T03:28:36;6.30;99.90
37478;DHT22;23334;54.316;10.182;2023-12-20T03:31:02;6.30;99.90
37478;DHT22;23334;54.316;10.182;2023-12-20T03:33:30;6.40;99.90
37478;DHT22;23334;54.316;10.182;2023-12-20T03:35:56;6.30;99.90
37478;DHT22;23334;54.316;10.182;2023-12-20T03:38:23;6.40;99.90
37478;DHT22;23334;54.316;10.182;2023-12-20T03:40:51;6.40;99.90
37478;DHT22;23334;54.316;10.182;2023-12-20T03:43:17;6.40;99.90
37478;DHT22;23334;54.316;10.182;2023-12-20T03:45:44;6.50;99.90
37478;DHT22;23334;54.316;10.182;2023-12-20T03:48:10;6.50;99.90
37478;DHT22;23334;54.316;10.182;2023-12-20T03:50:35;6.50;99.90
37478;DHT22;23334;54.316;10.182;2023-12-20T03:53:01;6.40;99.90
37478;DHT22;23334;54.316;10.182;2023-12-20T03:55:26;6.40;99.90
37478;DHT22;23334;54.316;10.182;2023-12-20T03:57:52;6.40;99.90
37478;DHT22;23334;54.316;10.182;2023-12-20T04:00:20;6.40;99.90
37478;DHT22;23334;54.316;10.182;2023-12-20T04:02:46;6.40;99.90
37478;DHT22;23334;54.316;10.182;2023-12-20T04:05:11;6.40;99.90
37478;DHT22;23334;54.316;10.182;2023-12-20T04:07:37;6.40;99.90
37478;DHT22;23334;54.316;10.182;2023-12-20T04:10:04;6.40;99.90
37478;DHT22;23334;54.316;10.182;2023-12-20T04:12:30;6.40;99.90
37478;DHT22;23334;54.316;10.182;2023-12-20T04:14:56;6.40;99.90
37478;DHT22;23334;54.316;10.182;2023-12-20T04:17:22;6.40;99.90
37478;DHT22;23334;54.316;10.182;2023-12-20T04:19:51;6.40;99.90
37478;DHT22;23334;54.316;10.182;2023-12-20T04:22:19;6.40;99.90
37478;DHT22;23334;54.316;10.182;2023-12-20T04:24:45;6.30;99.90
37478;DHT22;23334;54.316;10.182;2023-12-20T04:27:11;6.30;99.90
37478;DHT22;23334;54.316;10.182;2023-12-20T04:29:36;6.30;99.90
37478;DHT22;23334;54.316;10.182;2023-12-20T04:32:02;6.30;99.90
37478;DHT22;23334;54.316;10.182;2023-12-20T04:34:29;6.40;99.90
37478;DHT22;23334;54.316;10.182;2023-12-20T04:36:54;6.40;99.90
37478;DHT22;23334;54.316;10.182;2023-12-20T04:39:20;6.40;99.90
37478;DHT22;23334;54.316;10.182;2023-12-20T04:41:45;6.30;99.90
37478;DHT22;23334;54.316;10.182;2023-12-20T04:44:13;6.30;99.90
37478;DHT22;23334;54.316;10.182;2023-12-20T04:46:39;6.30;99.90
37478;DHT22;23334;54.316;10.182;2023-12-20T04:49:05;6.30;99.90
37478;DHT22;23334;54.316;10.182;2023-12-20T04:51:33;6.30;99.90
37478;DHT22;23334;54.316;10.182;2023-12-20T04:53:59;6.20;99.90
37478;DHT22;23334;54.316;10.182;2023-12-20T04:56:25;6.20;99.90
37478;DHT22;23334;54.316;10.182;2023-12-20T04:58:51;6.20;99.90
37478;DHT22;23334;54.316;10.182;2023-12-20T05:01:17;6.20;99.90
37478;DHT22;23334;54.316;10.182;2023-12-20T05:03:43;6.20;99.90
37478;DHT22;23334;54.316;10.182;2023-12-20T05:06:10;6.20;99.90
37478;DHT22;23334;54.316;10.182;2023-12-20T05:08:35;6.20;99.90
37478;DHT22;23334;54.316;10.182;2023-12-20T05:11:01;6.20;99.90
37478;DHT22;23334;54.316;10.182;2023-12-20T05:13:27;6.30;99.90
37478;DHT22;23334;54.316;10.182;2023-12-20T05:15:53;6.30;99.90
37478;DHT22;23334;54.316;10.182;2023-12-20T05:18:21;6.40;99.90
37478;DHT22;23334;54.316;10.182;2023-12-20T05:20:46;6.40;99.90
37478;DHT22;23334;54.316;10.182;2023-12-20T05:23:12;6.40;99.90
37478;DHT22;23334;54.316;10.182;2023-12-20T05:25:38;6.40;99.90
37478;DHT22;23334;54.316;10.182;2023-12-20T05:28:04;6.40;99.90
37478;DHT22;23334;54.316;10.182;2023-12-20T05:30:30;6.30;99.90
37478;DHT22;23334;54.316;10.182;2023-12-20T05:32:55;6.30;99.90
37478;DHT22;23334;54.316;10.182;2023-12-20T05:35:21;6.30;99.90
37478;DHT22;23334;54.316;10.182;2023-12-20T05:37:49;6.30;99.90
37478;DHT22;23334;54.316;10.182;2023-12-20T05:40:14;6.30;99.90
37478;DHT22;23334;54.316;10.182;2023-12-20T05:42:40;6.30;99.90
37478;DHT22;23334;54.316;10.182;2023-12-20T05:45:06;6.30;99.90
37478;DHT22;23334;54.316;10.182;2023-12-20T05:47:31;6.30;99.90
37478;DHT22;23334;54.316;10.182;2023-12-20T05:49:57;6.30;99.90
37478;DHT22;23334;54.316;10.182;2023-12-20T05:52:22;6.30;99.90
37478;DHT22;23334;54.316;10.182;2023-12-20T05:54:48;6.30;99.90
37478;DHT22;23334;54.316;10.182;2023-12-20T05:57:15;6.30;99.90
37478;DHT22;23334;54.316;10.182;2023-12-20T05:59:40;6.30;99.90
37478;DHT22;23334;54.316;10.182;2023-12-20T06:02:06;6.30;99.90
37478;DHT22;23334;54.316;10.182;2023-12-20T06:04:31;6.30;99.90
37478;DHT22;23334;54.316;10.182;2023-12-20T06:06:57;6.30;99.90
37478;DHT22;23334;54.316;10.182;2023-12-20T06:09:24;6.40;99.90
37478;DHT22;23334;54.316;10.182;2023-12-20T06:11:50;6.40;99.90
37478;DHT22;23334;54.316;10.182;2023-12-20T06:14:16;6.40;99.90
37478;DHT22;23334;54.316;10.182;2023-12-20T06:16:41;6.40;99.90
37478;DHT22;23334;54.316;10.182;2023-12-20T06:19:08;6.40;99.90
37478;DHT22;23334;54.316;10.182;2023-12-20T06:21:34;6.30;99.90
37478;DHT22;23334;54.316;10.182;2023-12-20T06:24:01;6.30;99.90
37478;DHT22;23334;54.316;10.182;2023-12-20T06:26:26;6.30;99.90
37478;DHT22;23334;54.316;10.182;2023-12-20T06:28:53;6.30;99.90
37478;DHT22;23334;54.316;10.182;2023-12-20T06:31:19;6.40;99.90
37478;DHT22;23334;54.316;10.182;2023-12-20T06:33:44;6.40;99.90
37478;DHT22;23334;54.316;10.182;2023-12-20T06:36:14;6.40;99.90
37478;DHT22;23334;54.316;10.182;2023-12-20T06:38:41;6.50;99.90
37478;DHT22;23334;54.316;10.182;2023-12-20T06:41:13;6.50;99.90
37478;DHT22;23334;54.316;10.182;2023-12-20T06:43:39;6.50;99.90
37478;DHT22;23334;54.316;10.182;2023-12-20T06:46:06;6.50;99.90
37478;DHT22;23334;54.316;10.182;2023-12-20T06:48:31;6.50;99.90
37478;DHT22;23334;54.316;10.182;2023-12-20T06:50:59;6.50;99.90
37478;DHT22;23334;54.316;10.182;2023-12-20T06:53:25;6.50;99.90
37478;DHT22;23334;54.316;10.182;2023-12-20T06:55:52;6.50;99.90
37478;DHT22;23334;54.316;10.182;2023-12-20T06:58:17;6.40;99.90
37478;DHT22;23334;54.316;10.182;2023-12-20T07:00:43;6.30;99.90
37478;DHT22;23334;54.316;10.182;2023-12-20T07:03:09;6.20;99.90
37478;DHT22;23334;54.316;10.182;2023-12-20T07:05:38;6.20;99.90
37478;DHT22;23334;54.316;10.182;2023-12-20T07:08:04;6.20;99.90
37478;DHT22;23334;54.316;10.182;2023-12-20T07:10:30;6.10;99.90
37478;DHT22;23334;54.316;10.182;2023-12-20T07:12:55;6.10;99.90
37478;DHT22;23334;54.316;10.182;2023-12-20T07:15:23;6.10;99.90
37478;DHT22;23334;54.316;10.182;2023-12-20T07:17:48;6.10;99.90
37478;DHT22;23334;54.316;10.182;2023-12-20T07:20:14;6.00;99.90
37478;DHT22;23334;54.316;10.182;2023-12-20T07:22:40;6.00;99.90
37478;DHT22;23334;54.316;10.182;2023-12-20T07:25:06;5.90;99.90
37478;DHT22;23334;54.316;10.182;2023-12-20T07:27:32;5.90;99.90
37478;DHT22;23334;54.316;10.182;2023-12-20T07:29:59;5.90;99.90
37478;DHT22;23334;54.316;10.182;2023-12-20T07:32:24;5.90;99.90
37478;DHT22;23334;54.316;10.182;2023-12-20T07:34:50;5.90;99.90
37478;DHT22;23334;54.316;10.182;2023-12-20T07:37:16;5.90;99.90
37478;DHT22;23334;54.316;10.182;2023-12-20T07:39:41;5.90;99.90
37478;DHT22;23334;54.316;10.182;2023-12-20T07:42:08;5.90;99.90
37478;DHT22;23334;54.316;10.182;2023-12-20T07:44:33;6.00;99.90
37478;DHT22;23334;54.316;10.182;2023-12-20T07:47:03;6.00;99.90
37478;DHT22;23334;54.316;10.182;2023-12-20T07:49:29;6.10;99.90
37478;DHT22;23334;54.316;10.182;2023-12-20T07:51:55;6.10;99.90
37478;DHT22;23334;54.316;10.182;2023-12-20T07:54:20;6.10;99.90
37478;DHT22;23334;54.316;10.182;2023-12-20T07:56:50;6.10;99.90
37478;DHT22;23334;54.316;10.182;2023-12-20T07:59:17;6.10;99.90
37478;DHT22;23334;54.316;10.182;2023-12-20T08:01:42;6.20;99.90
37478;DHT22;23334;54.316;10.182;2023-12-20T08:04:08;6.20;99.90
37478;DHT22;23334;54.316;10.182;2023-12-20T08:06:33;6.20;99.90
37478;DHT22;23334;54.316;10.182;2023-12-20T08:08:59;6.20;99.90
37478;DHT22;23334;54.316;10.182;2023-12-20T08:11:24;6.20;99.90
37478;DHT22;23334;54.316;10.182;2023-12-20T08:13:50;6.20;99.90
37478;DHT22;23334;54.316;10.182;2023-12-20T08:16:17;6.20;99.90
37478;DHT22;23334;54.316;10.182;2023-12-20T08:18:45;6.20;99.90
37478;DHT22;23334;54.316;10.182;2023-12-20T08:21:11;6.20;99.90
37478;DHT22;23334;54.316;10.182;2023-12-20T08:23:37;6.20;99.90
37478;DHT22;23334;54.316;10.182;2023-12-20T08:26:06;6.20;99.90
37478;DHT22;23334;54.316;10.182;2023-12-20T08:28:32;6.20;99.90
37478;DHT22;23334;54.316;10.182;2023-12-20T08:30:59;6.20;99.90
37478;DHT22;23334;54.316;10.182;2023-12-20T08:33:26;6.20;99.90
37478;DHT22;23334;54.316;10.182;2023-12-20T08:35:53;6.20;99.90
37478;DHT22;23334;54.316;10.182;2023-12-20T08:38:19;6.20;99.90
37478;DHT22;23334;54.316;10.182;2023-12-20T08:40:45;6.20;99.90
37478;DHT22;23334;54.316;10.182;2023-12-20T08:43:11;6.10;99.90
37478;DHT22;23334;54.316;10.182;2023-12-20T08:45:37;5.90;99.90
37478;DHT22;23334;54.316;10.182;2023-12-20T08:48:04;5.80;99.90
37478;DHT22;23334;54.316;10.182;2023-12-20T08:50:30;5.70;99.90
37478;DHT22;23334;54.316;10.182;2023-12-20T08:52:55;5.60;99.90
37478;DHT22;23334;54.316;10.182;2023-12-20T08:55:21;5.50;99.90
37478;DHT22;23334;54.316;10.182;2023-12-20T08:57:46;5.40;99.90
37478;DHT22;23334;54.316;10.182;2023-12-20T09:00:12;5.40;99.90
37478;DHT22;23334;54.316;10.182;2023-12-20T09:02:39;5.40;99.90
37478;DHT22;23334;54.316;10.182;2023-12-20T09:05:05;5.40;99.90
37478;DHT22;23334;54.316;10.182;2023-12-20T09:07:30;5.40;99.90
37478;DHT22;23334;54.316;10.182;2023-12-20T09:09:57;5.50;99.90
37478;DHT22;23334;54.316;10.182;2023-12-20T09:12:23;5.50;99.90
37478;DHT22;23334;54.316;10.182;2023-12-20T09:14:51;5.50;99.90
37478;DHT22;23334;54.316;10.182;2023-12-20T09:17:18;5.40;99.90
37478;DHT22;23334;54.316;10.182;2023-12-20T09:19:43;5.40;99.90
37478;DHT22;23334;54.316;10.182;2023-12-20T09:22:09;5.40;99.90
37478;DHT22;23334;54.316;10.182;2023-12-20T09:24:35;5.40;99.90
37478;DHT22;23334;54.316;10.182;2023-12-20T09:27:01;5.40;99.90
37478;DHT22;23334;54.316;10.182;2023-12-20T09:29:28;5.30;99.90
37478;DHT22;23334;54.316;10.182;2023-12-20T09:31:54;5.40;99.90
37478;DHT22;23334;54.316;10.182;2023-12-20T09:34:19;5.30;99.90
37478;DHT22;23334;54.316;10.182;2023-12-20T09:36:46;5.30;99.90
37478;DHT22;23334;54.316;10.182;2023-12-20T09:39:17;5.30;99.90
37478;DHT22;23334;54.316;10.182;2023-12-20T09:41:52;5.40;99.90
37478;DHT22;23334;54.316;10.182;2023-12-20T09:44:21;5.50;99.90
37478;DHT22;23334;54.316;10.182;2023-12-20T09:46:50;5.50;99.90
37478;DHT22;23334;54.316;10.182;2023-12-20T09:49:17;5.60;99.90
37478;DHT22;23334;54.316;10.182;2023-12-20T09:51:47;5.60;99.90
37478;DHT22;23334;54.316;10.182;2023-12-20T09:54:20;5.50;99.90
37478;DHT22;23334;54.316;10.182;2023-12-20T09:56:45;5.50;99.90
37478;DHT22;23334;54.316;10.182;2023-12-20T09:59:11;5.50;99.90
37478;DHT22;23334;54.316;10.182;2023-12-20T10:01:39;5.50;99.90
37478;DHT22;23334;54.316;10.182;2023-12-20T10:04:06;5.40;99.90
37478;DHT22;23334;54.316;10.182;2023-12-20T10:06:44;5.40;99.90
37478;DHT22;23334;54.316;10.182;2023-12-20T10:09:10;5.40;99.90
37478;DHT22;23334;54.316;10.182;2023-12-20T10:11:38;5.40;99.90
37478;DHT22;23334;54.316;10.182;2023-12-20T10:14:05;5.40;99.90
37478;DHT22;23334;54.316;10.182;2023-12-20T10:16:32;5.40;99.90
37478;DHT22;23334;54.316;10.182;2023-12-20T10:18:59;5.50;99.90
37478;DHT22;23334;54.316;10.182;2023-12-20T10:21:26;5.60;99.90
37478;DHT22;23334;54.316;10.182;2023-12-20T10:23:53;5.80;99.90
37478;DHT22;23334;54.316;10.182;2023-12-20T10:26:26;6.00;99.90
37478;DHT22;23334;54.316;10.182;2023-12-20T10:28:56;6.30;99.90
37478;DHT22;23334;54.316;10.182;2023-12-20T10:31:34;6.20;99.90
37478;DHT22;23334;54.316;10.182;2023-12-20T10:34:02;5.80;99.90
37478;DHT22;23334;54.316;10.182;2023-12-20T10:36:32;5.50;99.90
37478;DHT22;23334;54.316;10.182;2023-12-20T10:38:59;5.40;99.90
37478;DHT22;23334;54.316;10.182;2023-12-20T10:41:30;5.20;99.90
37478;DHT22;23334;54.316;10.182;2023-12-20T10:44:03;5.10;99.90
37478;DHT22;23334;54.316;10.182;2023-12-20T10:46:30;5.10;99.90
37478;DHT22;23334;54.316;10.182;2023-12-20T10:48:58;5.30;99.90
37478;DHT22;23334;54.316;10.182;2023-12-20T10:51:24;5.40;99.90
37478;DHT22;23334;54.316;10.182;2023-12-20T10:53:53;5.50;99.90
37478;DHT22;23334;54.316;10.182;2023-12-20T10:56:19;5.60;99.90
37478;DHT22;23334;54.316;10.182;2023-12-20T10:58:48;5.60;99.90
37478;DHT22;23334;54.316;10.182;2023-12-20T11:01:16;5.60;99.90
37478;DHT22;23334;54.316;10.182;2023-12-20T11:03:46;5.50;99.90
37478;DHT22;23334;54.316;10.182;2023-12-20T11:06:43;5.50;99.90
37478;DHT22;23334;54.316;10.182;2023-12-20T11:09:28;5.50;99.90
37478;DHT22;23334;54.316;10.182;2023-12-20T11:12:06;5.50;99.90
37478;DHT22;23334;54.316;10.182;2023-12-20T11:17:09;5.50;99.90
37478;DHT22;23334;54.316;10.182;2023-12-20T11:19:38;5.40;99.90
37478;DHT22;23334;54.316;10.182;2023-12-20T11:22:08;5.40;99.90
37478;DHT22;23334;54.316;10.182;2023-12-20T11:24:34;5.60;99.90
37478;DHT22;23334;54.316;10.182;2023-12-20T11:27:03;5.80;99.90
37478;DHT22;23334;54.316;10.182;2023-12-20T11:29:30;5.80;99.90
37478;DHT22;23334;54.316;10.182;2023-12-20T11:31:55;5.90;99.90
37478;DHT22;23334;54.316;10.182;2023-12-20T11:34:21;6.00;99.90
37478;DHT22;23334;54.316;10.182;2023-12-20T11:36:46;6.00;99.90
37478;DHT22;23334;54.316;10.182;2023-12-20T11:39:20;6.10;99.90
37478;DHT22;23334;54.316;10.182;2023-12-20T11:41:48;6.10;99.90
37478;DHT22;23334;54.316;10.182;2023-12-20T11:44:17;6.10;99.90
37478;DHT22;23334;54.316;10.182;2023-12-20T11:46:42;6.00;99.90
37478;DHT22;23334;54.316;10.182;2023-12-20T11:49:08;5.90;99.90
37478;DHT22;23334;54.316;10.182;2023-12-20T11:51:33;5.70;99.90
37478;DHT22;23334;54.316;10.182;2023-12-20T11:54:00;5.70;99.90
37478;DHT22;23334;54.316;10.182;2023-12-20T11:56:25;5.70;99.90
37478;DHT22;23334;54.316;10.182;2023-12-20T11:58:51;5.70;99.90
37478;DHT22;23334;54.316;10.182;2023-12-20T12:01:19;5.70;99.90
37478;DHT22;23334;54.316;10.182;2023-12-20T12:03:45;5.80;99.90
37478;DHT22;23334;54.316;10.182;2023-12-20T12:06:11;5.90;99.90
37478;DHT22;23334;54.316;10.182;2023-12-20T12:08:38;5.90;99.90
37478;DHT22;23334;54.316;10.182;2023-12-20T12:11:03;6.00;99.90
37478;DHT22;23334;54.316;10.182;2023-12-20T12:13:29;5.90;99.90
37478;DHT22;23334;54.316;10.182;2023-12-20T12:15:55;5.90;99.90
37478;DHT22;23334;54.316;10.182;2023-12-20T12:18:21;5.90;99.90
37478;DHT22;23334;54.316;10.182;2023-12-20T12:20:48;6.00;99.90
37478;DHT22;23334;54.316;10.182;2023-12-20T12:23:15;6.10;99.90
37478;DHT22;23334;54.316;10.182;2023-12-20T12:25:48;6.30;99.90
37478;DHT22;23334;54.316;10.182;2023-12-20T12:28:15;6.60;99.90
37478;DHT22;23334;54.316;10.182;2023-12-20T12:30:42;6.70;99.90
37478;DHT22;23334;54.316;10.182;2023-12-20T12:33:07;6.70;99.90
37478;DHT22;23334;54.316;10.182;2023-12-20T12:35:34;6.40;99.90
37478;DHT22;23334;54.316;10.182;2023-12-20T12:38:00;5.50;99.90
37478;DHT22;23334;54.316;10.182;2023-12-20T12:40:26;5.00;99.90
37478;DHT22;23334;54.316;10.182;2023-12-20T12:42:53;4.80;99.90
37478;DHT22;23334;54.316;10.182;2023-12-20T12:45:19;4.70;99.90
37478;DHT22;23334;54.316;10.182;2023-12-20T12:47:45;4.50;99.90
37478;DHT22;23334;54.316;10.182;2023-12-20T12:50:10;4.40;99.90
37478;DHT22;23334;54.316;10.182;2023-12-20T12:52:36;4.40;99.90
37478;DHT22;23334;54.316;10.182;2023-12-20T12:55:03;4.40;99.90
37478;DHT22;23334;54.316;10.182;2023-12-20T12:57:30;4.40;99.90
37478;DHT22;23334;54.316;10.182;2023-12-20T12:59:56;4.50;99.90
37478;DHT22;23334;54.316;10.182;2023-12-20T13:02:22;4.50;99.90
37478;DHT22;23334;54.316;10.182;2023-12-20T13:04:47;4.70;99.90
37478;DHT22;23334;54.316;10.182;2023-12-20T13:07:13;4.80;99.90
37478;DHT22;23334;54.316;10.182;2023-12-20T13:09:39;4.80;99.90
37478;DHT22;23334;54.316;10.182;2023-12-20T13:12:06;4.90;99.90
37478;DHT22;23334;54.316;10.182;2023-12-20T13:14:33;5.00;99.90
37478;DHT22;23334;54.316;10.182;2023-12-20T13:17:00;5.20;99.90
37478;DHT22;23334;54.316;10.182;2023-12-20T13:19:25;5.20;99.90
37478;DHT22;23334;54.316;10.182;2023-12-20T13:21:50;5.30;99.90
37478;DHT22;23334;54.316;10.182;2023-12-20T13:24:16;5.40;99.90
37478;DHT22;23334;54.316;10.182;2023-12-20T13:26:41;5.50;99.90
37478;DHT22;23334;54.316;10.182;2023-12-20T13:29:07;5.60;99.90
37478;DHT22;23334;54.316;10.182;2023-12-20T13:31:32;5.60;99.90
37478;DHT22;23334;54.316;10.182;2023-12-20T13:33:59;5.70;99.90
37478;DHT22;23334;54.316;10.182;2023-12-20T13:36:25;5.80;99.90
37478;DHT22;23334;54.316;10.182;2023-12-20T13:38:51;5.90;99.90
37478;DHT22;23334;54.316;10.182;2023-12-20T13:41:17;5.90;99.90
37478;DHT22;23334;54.316;10.182;2023-12-20T13:43:42;5.90;99.90
37478;DHT22;23334;54.316;10.182;2023-12-20T13:46:08;6.00;99.90
37478;DHT22;23334;54.316;10.182;2023-12-20T13:48:33;6.00;99.90
37478;DHT22;23334;54.316;10.182;2023-12-20T13:51:00;6.00;99.90
37478;DHT22;23334;54.316;10.182;2023-12-20T13:53:29;6.00;99.90
37478;DHT22;23334;54.316;10.182;2023-12-20T13:55:57;6.00;99.90
37478;DHT22;23334;54.316;10.182;2023-12-20T13:58:24;5.90;99.90
37478;DHT22;23334;54.316;10.182;2023-12-20T14:00:49;5.90;99.90
37478;DHT22;23334;54.316;10.182;2023-12-20T14:03:15;5.90;99.90
37478;DHT22;23334;54.316;10.182;2023-12-20T14:05:40;5.90;99.90
37478;DHT22;23334;54.316;10.182;2023-12-20T14:08:06;5.90;99.90
37478;DHT22;23334;54.316;10.182;2023-12-20T14:10:33;5.80;99.90
37478;DHT22;23334;54.316;10.182;2023-12-20T14:13:00;5.80;99.90
37478;DHT22;23334;54.316;10.182;2023-12-20T14:15:26;5.70;99.90
37478;DHT22;23334;54.316;10.182;2023-12-20T14:17:51;5.70;99.90
37478;DHT22;23334;54.316;10.182;2023-12-20T14:20:18;5.70;99.90
37478;DHT22;23334;54.316;10.182;2023-12-20T14:22:44;5.60;99.90
37478;DHT22;23334;54.316;10.182;2023-12-20T14:25:13;5.60;99.90
37478;DHT22;23334;54.316;10.182;2023-12-20T14:27:40;5.50;99.90
37478;DHT22;23334;54.316;10.182;2023-12-20T14:30:07;5.40;99.90
37478;DHT22;23334;54.316;10.182;2023-12-20T14:32:34;5.40;99.90
37478;DHT22;23334;54.316;10.182;2023-12-20T14:35:04;5.40;99.90
37478;DHT22;23334;54.316;10.182;2023-12-20T14:37:31;5.40;99.90
37478;DHT22;23334;54.316;10.182;2023-12-20T14:39:56;5.40;99.90
37478;DHT22;23334;54.316;10.182;2023-12-20T14:42:22;5.40;99.90
37478;DHT22;23334;54.316;10.182;2023-12-20T14:44:48;5.30;99.90
37478;DHT22;23334;54.316;10.182;2023-12-20T14:47:14;5.30;99.90
37478;DHT22;23334;54.316;10.182;2023-12-20T14:49:41;5.40;99.90
37478;DHT22;23334;54.316;10.182;2023-12-20T14:52:07;5.40;99.90
37478;DHT22;23334;54.316;10.182;2023-12-20T14:54:33;5.40;99.90
37478;DHT22;23334;54.316;10.182;2023-12-20T14:56:59;5.50;99.90
37478;DHT22;23334;54.316;10.182;2023-12-20T14:59:25;5.50;99.90
37478;DHT22;23334;54.316;10.182;2023-12-20T15:01:51;5.40;99.90
37478;DHT22;23334;54.316;10.182;2023-12-20T15:04:19;5.40;99.90
37478;DHT22;23334;54.316;10.182;2023-12-20T15:06:51;5.30;99.90
37478;DHT22;23334;54.316;10.182;2023-12-20T15:09:17;5.20;99.90
37478;DHT22;23334;54.316;10.182;2023-12-20T15:11:43;5.20;99.90
37478;DHT22;23334;54.316;10.182;2023-12-20T15:14:08;5.20;99.90
37478;DHT22;23334;54.316;10.182;2023-12-20T15:16:35;5.20;99.90
37478;DHT22;23334;54.316;10.182;2023-12-20T15:19:00;5.20;99.90
37478;DHT22;23334;54.316;10.182;2023-12-20T15:21:26;5.20;99.90
37478;DHT22;23334;54.316;10.182;2023-12-20T15:23:57;5.20;99.90
37478;DHT22;23334;54.316;10.182;2023-12-20T15:26:32;5.20;99.90
37478;DHT22;23334;54.316;10.182;2023-12-20T15:28:58;5.20;99.90